createdAt,value
2022-10-23T00:01:38.120Z,15.63
2022-10-23T00:04:08.500Z,16.17
2022-10-23T00:06:37.594Z,14.63
2022-10-23T00:09:07.934Z,16.50
2022-10-23T00:11:36.498Z,16.37
2022-10-23T00:14:08.071Z,15.90
2022-10-23T00:16:39.074Z,15.70
2022-10-23T00:19:08.469Z,14.80
2022-10-23T00:21:36.475Z,14.23
2022-10-23T00:24:04.635Z,15.27
2022-10-23T00:26:32.780Z,13.53
2022-10-23T00:29:00.790Z,14.17
2022-10-23T00:31:28.777Z,16.90
2022-10-23T00:33:58.094Z,14.60
2022-10-23T00:36:25.998Z,16.07
2022-10-23T00:38:53.971Z,15.73
2022-10-23T00:41:24.135Z,15.53
2022-10-23T00:43:58.036Z,15.27
2022-10-23T00:46:26.373Z,13.93
2022-10-23T00:48:54.523Z,14.27
2022-10-23T00:51:24.334Z,13.83
2022-10-23T00:54:01.217Z,12.90
2022-10-23T00:56:45.494Z,12.13
2022-10-23T00:59:14.264Z,12.17
2022-10-23T01:01:42.910Z,14.57
2022-10-23T01:04:11.731Z,15.63
2022-10-23T01:06:46.592Z,19.00
2022-10-23T01:09:20.287Z,19.33
2022-10-23T01:11:54.363Z,18.97
2022-10-23T01:14:28.705Z,18.87
2022-10-23T01:17:05.442Z,17.80
2022-10-23T01:19:50.809Z,18.70
2022-10-23T01:22:39.682Z,18.23
2022-10-23T01:25:24.955Z,15.67
2022-10-23T01:28:00.414Z,19.83
2022-10-23T01:30:29.953Z,19.00
2022-10-23T01:33:03.377Z,17.80
2022-10-23T01:35:37.936Z,18.93
2022-10-23T01:38:10.800Z,18.07
2022-10-23T01:40:45.960Z,16.07
2022-10-23T01:43:21.478Z,17.17
2022-10-23T01:45:54.358Z,17.77
2022-10-23T01:48:26.621Z,15.87
2022-10-23T01:50:57.051Z,15.40
2022-10-23T01:53:30.825Z,16.83
2022-10-23T01:56:00.361Z,17.93
2022-10-23T01:58:32.720Z,15.80
2022-10-23T02:01:05.054Z,16.27
2022-10-23T02:03:36.707Z,15.33
2022-10-23T02:06:04.775Z,14.77
2022-10-23T02:08:33.163Z,15.77
2022-10-23T02:11:08.349Z,14.43
2022-10-23T02:13:47.925Z,15.83
2022-10-23T02:16:24.420Z,16.13
2022-10-23T02:18:58.495Z,15.00
2022-10-23T02:21:32.920Z,15.13
2022-10-23T02:24:04.553Z,15.53
2022-10-23T02:26:37.993Z,12.67
2022-10-23T02:29:13.719Z,14.43
2022-10-23T02:31:42.166Z,13.63
2022-10-23T02:34:10.186Z,12.90
2022-10-23T02:36:38.625Z,13.50
2022-10-23T02:39:06.720Z,12.30
2022-10-23T02:41:42.527Z,12.00
2022-10-23T02:44:34.499Z,12.60
2022-10-23T02:47:14.731Z,10.77
2022-10-23T02:49:50.172Z,12.63
2022-10-23T02:52:23.103Z,15.43
2022-10-23T02:55:18.173Z,13.00
2022-10-23T02:57:52.356Z,14.70
2022-10-23T03:00:23.148Z,14.27
2022-10-23T03:02:57.858Z,14.73
2022-10-23T03:05:29.387Z,14.27
2022-10-23T03:07:57.350Z,15.50
2022-10-23T03:10:25.690Z,16.27
2022-10-23T03:12:53.747Z,16.13
2022-10-23T03:15:23.091Z,17.27
2022-10-23T03:17:51.045Z,16.77
2022-10-23T03:20:19.618Z,14.67
2022-10-23T03:22:47.651Z,17.03
2022-10-23T03:25:15.871Z,16.27
2022-10-23T03:27:44.119Z,15.47
2022-10-23T03:30:13.079Z,16.33
2022-10-23T03:32:42.549Z,15.30
2022-10-23T03:35:10.786Z,15.97
2022-10-23T03:37:38.924Z,14.23
2022-10-23T03:40:08.045Z,12.80
2022-10-23T03:42:35.979Z,12.47
2022-10-23T03:45:04.140Z,12.27
2022-10-23T03:47:35.084Z,11.83
2022-10-23T03:50:04.888Z,12.70
2022-10-23T03:52:32.769Z,12.40
2022-10-23T03:55:00.867Z,10.33
2022-10-23T03:57:28.935Z,10.63
2022-10-23T03:59:56.949Z,10.57
2022-10-23T04:02:25.035Z,9.43
2022-10-23T04:04:53.344Z,9.10
2022-10-23T04:07:22.632Z,9.87
2022-10-23T04:09:50.662Z,8.63
2022-10-23T04:12:18.831Z,11.13
2022-10-23T04:14:46.846Z,10.20
2022-10-23T04:17:14.896Z,10.00
2022-10-23T04:19:42.972Z,9.60
2022-10-23T04:22:10.861Z,9.90
2022-10-23T04:24:45.461Z,9.00
2022-10-23T04:27:13.787Z,7.37
2022-10-23T04:29:42.014Z,8.07
2022-10-23T04:32:09.974Z,7.93
2022-10-23T04:34:37.942Z,8.80
2022-10-23T04:37:06.139Z,9.07
2022-10-23T04:39:34.071Z,9.27
2022-10-23T04:42:03.402Z,9.23
2022-10-23T04:44:31.371Z,9.77
2022-10-23T04:46:59.249Z,9.90
2022-10-23T04:49:27.130Z,8.60
2022-10-23T04:51:55.083Z,8.33
2022-10-23T04:54:23.104Z,7.10
2022-10-23T04:56:51.012Z,7.40
2022-10-23T04:59:20.714Z,10.47
2022-10-23T05:01:48.731Z,7.20
2022-10-23T05:04:16.746Z,7.63
2022-10-23T05:06:44.811Z,8.23
2022-10-23T05:09:12.782Z,8.93
2022-10-23T05:11:40.774Z,8.83
2022-10-23T05:14:08.807Z,8.83
2022-10-23T05:16:49.920Z,9.80
2022-10-23T05:19:26.451Z,9.93
2022-10-23T05:21:58.335Z,10.50
2022-10-23T05:24:27.597Z,9.90
2022-10-23T05:26:55.534Z,9.83
2022-10-23T05:29:24.539Z,9.60
2022-10-23T05:31:58.436Z,10.77
2022-10-23T05:34:28.266Z,14.20
2022-10-23T05:36:56.808Z,13.63
2022-10-23T05:39:25.130Z,12.67
2022-10-23T05:41:53.093Z,28.87
2022-10-23T05:44:20.972Z,16.50
2022-10-23T05:46:48.875Z,16.00
2022-10-23T05:49:18.223Z,15.37
2022-10-23T05:51:46.279Z,11.27
2022-10-23T05:54:14.120Z,11.57
2022-10-23T05:56:42.618Z,10.80
2022-10-23T05:59:11.031Z,12.00
2022-10-23T06:01:39.191Z,13.87
2022-10-23T06:04:07.434Z,6.43
2022-10-23T06:06:37.611Z,10.53
2022-10-23T06:09:05.926Z,9.27
2022-10-23T06:11:33.794Z,7.73
2022-10-23T06:14:01.879Z,6.90
2022-10-23T06:16:30.000Z,7.97
2022-10-23T06:18:58.573Z,7.20
2022-10-23T06:21:26.536Z,8.30
2022-10-23T06:23:56.595Z,7.37
2022-10-23T06:26:24.498Z,7.63
2022-10-23T06:28:52.595Z,7.10
2022-10-23T06:31:23.644Z,6.97
2022-10-23T06:33:51.534Z,7.93
2022-10-23T06:36:19.712Z,7.53
2022-10-23T06:38:47.652Z,6.57
2022-10-23T06:41:19.225Z,6.37
2022-10-23T06:43:48.857Z,6.23
2022-10-23T06:46:16.814Z,6.57
2022-10-23T06:48:45.158Z,6.23
2022-10-23T06:51:18.268Z,7.33
2022-10-23T06:53:46.906Z,5.90
2022-10-23T06:56:16.170Z,5.67
2022-10-23T06:58:44.049Z,4.70
2022-10-23T07:01:14.207Z,5.23
2022-10-23T07:03:42.277Z,5.30
2022-10-23T07:06:12.213Z,5.70
2022-10-23T07:08:40.477Z,5.73
2022-10-23T07:11:10.531Z,5.30
2022-10-23T07:13:40.819Z,5.70
2022-10-23T07:16:16.782Z,4.57
2022-10-23T07:18:45.648Z,5.03
2022-10-23T07:21:13.951Z,5.00
2022-10-23T07:23:41.897Z,5.37
2022-10-23T07:26:11.785Z,5.00
2022-10-23T07:28:42.576Z,4.70
2022-10-23T07:31:11.486Z,5.00
2022-10-23T07:33:39.857Z,4.67
2022-10-23T07:36:10.570Z,5.03
2022-10-23T07:38:38.575Z,5.40
2022-10-23T07:41:08.988Z,5.20
2022-10-23T07:43:41.460Z,5.23
2022-10-23T07:46:10.524Z,4.50
2022-10-23T07:48:39.253Z,4.97
2022-10-23T07:51:10.861Z,4.23
2022-10-23T07:53:39.620Z,4.77
2022-10-23T07:56:15.384Z,4.13
2022-10-23T07:58:45.017Z,5.00
2022-10-23T08:01:20.034Z,4.90
2022-10-23T08:03:48.072Z,4.27
2022-10-23T08:06:16.121Z,4.10
2022-10-23T08:11:15.315Z,3.73
2022-10-23T08:13:45.205Z,3.30
2022-10-23T08:16:13.476Z,3.80
2022-10-23T08:18:42.828Z,4.27
2022-10-23T08:21:11.319Z,3.50
2022-10-23T08:23:39.439Z,3.67
2022-10-23T08:26:08.160Z,3.53
2022-10-23T08:28:36.880Z,3.27
2022-10-23T08:31:13.657Z,3.70
2022-10-23T08:33:41.893Z,4.70
2022-10-23T08:36:18.427Z,4.07
2022-10-23T08:38:46.639Z,4.17
2022-10-23T08:41:25.991Z,4.27
2022-10-23T08:43:58.658Z,4.13
2022-10-23T08:46:31.458Z,3.77
2022-10-23T08:49:18.270Z,4.47
2022-10-23T08:51:50.001Z,3.73
2022-10-23T08:54:22.774Z,4.13
2022-10-23T08:56:55.670Z,4.00
2022-10-23T08:59:29.222Z,4.10
2022-10-23T09:02:03.565Z,4.13
2022-10-23T09:04:31.855Z,4.30
2022-10-23T09:10:01.687Z,4.10
2022-10-23T09:12:32.091Z,4.03
2022-10-23T09:15:18.581Z,4.17
2022-10-23T09:17:49.043Z,4.70
2022-10-23T09:20:22.543Z,4.10
2022-10-23T09:22:54.301Z,4.00
2022-10-23T09:25:25.271Z,3.80
2022-10-23T09:27:56.710Z,4.07
2022-10-23T09:30:28.307Z,3.43
2022-10-23T09:32:57.656Z,3.40
2022-10-23T09:35:28.090Z,3.50
2022-10-23T09:37:56.373Z,2.87
2022-10-23T09:40:31.087Z,2.93
2022-10-23T09:43:01.746Z,3.00
2022-10-23T09:45:33.181Z,3.03
2022-10-23T09:48:15.679Z,2.63
2022-10-23T09:50:49.464Z,3.17
2022-10-23T09:53:23.278Z,3.23
2022-10-23T09:55:56.965Z,2.90
2022-10-23T09:58:31.641Z,2.50
2022-10-23T10:00:59.762Z,2.27
2022-10-23T10:03:29.118Z,3.07
2022-10-23T10:05:59.387Z,2.97
2022-10-23T10:08:37.472Z,2.83
2022-10-23T10:11:13.184Z,2.50
2022-10-23T10:14:03.656Z,2.63
2022-10-23T10:16:43.846Z,1.70
2022-10-23T10:19:24.631Z,2.10
2022-10-23T10:22:02.592Z,2.07
2022-10-23T10:24:37.620Z,2.60
2022-10-23T10:27:15.642Z,2.00
2022-10-23T10:29:55.140Z,2.07
2022-10-23T10:32:36.781Z,2.53
2022-10-23T10:35:20.533Z,2.50
2022-10-23T10:38:02.217Z,2.10
2022-10-23T10:40:35.365Z,2.13
2022-10-23T10:43:36.667Z,1.50
2022-10-23T10:46:13.607Z,2.03
2022-10-23T10:48:49.080Z,2.23
2022-10-23T10:51:25.432Z,2.27
2022-10-23T10:54:09.885Z,2.10
2022-10-23T10:56:42.953Z,2.53
2022-10-23T10:59:17.436Z,2.27
2022-10-23T11:01:51.999Z,2.50
2022-10-23T11:04:29.515Z,2.10
2022-10-23T11:07:00.906Z,2.20
2022-10-23T11:09:33.520Z,2.83
2022-10-23T11:12:01.607Z,2.83
2022-10-23T11:14:34.139Z,2.33
2022-10-23T11:17:08.970Z,2.30
2022-10-23T11:19:42.748Z,2.63
2022-10-23T11:22:20.525Z,1.90
2022-10-23T11:25:21.405Z,1.93
2022-10-23T11:28:04.385Z,2.23
2022-10-23T11:30:44.309Z,2.17
2022-10-23T11:34:00.530Z,1.90
2022-10-23T11:36:44.036Z,2.00
2022-10-23T11:39:29.570Z,2.27
2022-10-23T11:41:59.956Z,2.13
2022-10-23T11:44:43.886Z,1.83
2022-10-23T11:47:36.453Z,2.07
2022-10-23T11:50:25.007Z,2.10
2022-10-23T11:53:16.192Z,2.10
2022-10-23T11:56:00.872Z,2.00
2022-10-23T11:58:41.589Z,2.63
2022-10-23T12:01:24.430Z,1.73
2022-10-23T12:03:55.529Z,1.93
2022-10-23T12:06:28.737Z,3.50
2022-10-23T12:09:01.161Z,2.13
2022-10-23T12:11:48.042Z,1.90
2022-10-23T12:14:31.004Z,2.00
2022-10-23T12:16:59.045Z,2.27
2022-10-23T12:19:28.572Z,1.63
2022-10-23T12:21:59.716Z,1.87
2022-10-23T12:24:40.487Z,2.90
2022-10-23T12:27:23.748Z,1.50
2022-10-23T12:30:14.535Z,2.40
2022-10-23T12:33:05.815Z,1.37
2022-10-23T12:35:59.469Z,1.90
2022-10-23T12:38:33.883Z,2.33
2022-10-23T12:41:13.944Z,1.80
2022-10-23T12:43:45.047Z,1.77
2022-10-23T12:46:30.233Z,1.13
2022-10-23T12:48:59.579Z,1.60
2022-10-23T12:51:29.260Z,1.37
2022-10-23T12:53:57.298Z,1.20
2022-10-23T12:56:28.604Z,1.43
2022-10-23T12:59:01.722Z,1.17
2022-10-23T13:01:31.711Z,1.63
2022-10-23T13:04:03.808Z,1.30
2022-10-23T13:06:32.570Z,1.67
2022-10-23T13:09:00.824Z,11.07
2022-10-23T13:11:29.534Z,2.57
2022-10-23T13:13:57.587Z,1.40
2022-10-23T13:16:28.090Z,0.93
2022-10-23T13:18:56.006Z,1.50
2022-10-23T13:21:26.176Z,1.07
2022-10-23T13:23:55.009Z,1.40
2022-10-23T13:26:31.653Z,1.10
2022-10-23T13:29:07.396Z,1.43
2022-10-23T13:31:38.174Z,1.30
2022-10-23T13:34:19.450Z,1.50
2022-10-23T13:36:53.866Z,1.67
2022-10-23T13:39:26.201Z,1.40
2022-10-23T13:41:54.682Z,1.40
2022-10-23T13:44:24.190Z,2.00
2022-10-23T13:46:53.903Z,2.30
2022-10-23T13:49:21.855Z,2.57
2022-10-23T13:51:52.175Z,4.13
2022-10-23T13:54:22.023Z,3.67
2022-10-23T13:56:50.323Z,3.10
2022-10-23T13:59:19.103Z,2.50
2022-10-23T14:01:48.330Z,3.10
2022-10-23T14:04:19.111Z,3.13
2022-10-23T14:06:46.998Z,3.03
2022-10-23T14:09:19.219Z,3.57
2022-10-23T14:11:47.852Z,3.07
2022-10-23T14:14:15.716Z,2.37
2022-10-23T14:16:43.724Z,2.57
2022-10-23T14:19:12.316Z,2.67
2022-10-23T14:21:41.550Z,2.30
2022-10-23T14:24:10.524Z,1.90
2022-10-23T14:26:38.478Z,2.37
2022-10-23T14:29:10.206Z,1.77
2022-10-23T14:31:41.909Z,2.00
2022-10-23T14:34:10.050Z,2.00
2022-10-23T14:36:49.486Z,1.83
2022-10-23T14:39:19.941Z,2.17
2022-10-23T14:41:48.663Z,2.30
2022-10-23T14:44:16.631Z,1.90
2022-10-23T14:46:44.641Z,1.80
2022-10-23T14:49:12.545Z,2.47
2022-10-23T14:51:40.471Z,2.10
2022-10-23T14:54:09.120Z,2.20
2022-10-23T14:56:40.888Z,1.80
2022-10-23T14:59:10.888Z,2.23
2022-10-23T15:01:43.785Z,3.17
2022-10-23T15:04:15.732Z,4.50
2022-10-23T15:06:43.951Z,4.43
2022-10-23T15:09:12.061Z,4.67
2022-10-23T15:11:41.473Z,5.63
2022-10-23T15:14:09.356Z,5.23
2022-10-23T15:16:41.440Z,5.70
2022-10-23T15:19:13.593Z,6.73
2022-10-23T15:21:45.294Z,7.57
2022-10-23T15:24:13.222Z,8.80
2022-10-23T15:26:43.289Z,8.73
2022-10-23T15:29:12.383Z,10.00
2022-10-23T15:31:46.935Z,7.97
2022-10-23T15:34:17.248Z,7.03
2022-10-23T15:36:47.059Z,5.90
2022-10-23T15:39:18.544Z,4.07
2022-10-23T15:41:48.085Z,3.60
2022-10-23T15:44:18.094Z,2.80
2022-10-23T15:46:47.428Z,2.70
2022-10-23T15:49:15.829Z,3.17
2022-10-23T15:51:43.830Z,3.40
2022-10-23T15:54:16.604Z,2.83
2022-10-23T15:56:45.142Z,2.20
2022-10-23T15:59:14.996Z,2.67
2022-10-23T16:01:43.441Z,2.80
2022-10-23T16:04:11.455Z,2.73
2022-10-23T16:06:39.670Z,2.93
2022-10-23T16:09:07.736Z,2.90
2022-10-23T16:11:38.065Z,3.33
2022-10-23T16:14:07.081Z,3.87
2022-10-23T16:16:36.300Z,2.80
2022-10-23T16:19:05.719Z,3.53
2022-10-23T16:21:36.001Z,3.07
2022-10-23T16:24:07.154Z,3.83
2022-10-23T16:26:35.861Z,3.13
2022-10-23T16:29:06.492Z,3.47
2022-10-23T16:31:36.251Z,3.00
2022-10-23T16:34:06.828Z,3.70
2022-10-23T16:36:35.502Z,3.60
2022-10-23T16:39:04.071Z,4.10
2022-10-23T16:41:32.145Z,4.70
2022-10-23T16:44:00.390Z,3.93
2022-10-23T16:46:28.550Z,3.13
2022-10-23T16:48:58.188Z,3.30
2022-10-23T16:51:27.816Z,4.17
2022-10-23T16:53:56.440Z,2.50
2022-10-23T16:56:27.920Z,2.93
2022-10-23T16:58:56.692Z,2.73
2022-10-23T17:01:27.304Z,2.53
2022-10-23T17:03:57.639Z,2.53
2022-10-23T17:06:27.778Z,2.30
2022-10-23T17:08:56.604Z,2.60
2022-10-23T17:11:26.520Z,3.03
2022-10-23T17:13:59.196Z,2.63
2022-10-23T17:16:29.210Z,3.10
2022-10-23T17:18:58.756Z,3.00
2022-10-23T17:21:26.696Z,3.13
2022-10-23T17:23:54.639Z,3.60
2022-10-23T17:26:23.598Z,2.73
2022-10-23T17:28:52.160Z,2.37
2022-10-23T17:31:22.275Z,2.47
2022-10-23T17:33:52.602Z,4.87
2022-10-23T17:36:22.931Z,6.23
2022-10-23T17:38:50.917Z,7.73
2022-10-23T17:41:20.864Z,6.30
2022-10-23T17:43:49.445Z,7.20
2022-10-23T17:46:19.650Z,4.50
2022-10-23T17:48:47.625Z,5.73
2022-10-23T17:51:17.425Z,6.60
2022-10-23T17:53:50.414Z,6.77
2022-10-23T17:56:20.321Z,6.10
2022-10-23T17:58:48.405Z,7.67
2022-10-23T18:01:18.914Z,7.87
2022-10-23T18:03:46.936Z,6.80
2022-10-23T18:06:17.962Z,5.53
2022-10-23T18:08:48.383Z,6.33
2022-10-23T18:11:17.518Z,6.20
2022-10-23T18:13:46.422Z,6.40
2022-10-23T18:16:15.599Z,6.30
2022-10-23T18:18:48.081Z,6.23
2022-10-23T18:21:17.356Z,5.47
2022-10-23T18:23:45.331Z,4.87
2022-10-23T18:26:17.842Z,6.70
2022-10-23T18:28:46.075Z,5.60
2022-10-23T18:31:15.391Z,6.70
2022-10-23T18:33:43.703Z,5.57
2022-10-23T18:36:16.641Z,7.87
2022-10-23T18:38:44.790Z,7.83
2022-10-23T18:41:12.991Z,8.37
2022-10-23T18:43:44.175Z,8.57
2022-10-23T18:46:12.907Z,6.80
2022-10-23T18:48:41.389Z,9.13
2022-10-23T18:51:15.840Z,11.43
2022-10-23T18:53:47.007Z,23.57
2022-10-23T18:56:16.432Z,7.00
2022-10-23T18:58:45.771Z,17.43
2022-10-23T19:01:13.923Z,19.47
2022-10-23T19:03:42.235Z,10.37
2022-10-23T19:06:10.684Z,14.60
2022-10-23T19:08:39.173Z,8.60
2022-10-23T19:11:09.825Z,7.60
2022-10-23T19:13:40.427Z,8.90
2022-10-23T19:16:14.395Z,5.67
2022-10-23T19:18:47.065Z,6.80
2022-10-23T19:21:15.674Z,8.10
2022-10-23T19:23:44.653Z,5.13
2022-10-23T19:26:14.342Z,5.80
2022-10-23T19:28:45.751Z,4.37
2022-10-23T19:31:15.829Z,4.47
2022-10-23T19:33:43.763Z,4.53
2022-10-23T19:36:14.271Z,4.67
2022-10-23T19:38:42.796Z,7.00
2022-10-23T19:41:10.941Z,7.67
2022-10-23T19:43:39.028Z,7.47
2022-10-23T19:46:11.010Z,6.20
2022-10-23T19:48:44.687Z,6.20
2022-10-23T19:51:13.982Z,5.93
2022-10-23T19:53:42.903Z,8.17
2022-10-23T19:56:12.806Z,7.90
2022-10-23T19:58:41.542Z,4.23
2022-10-23T20:01:11.799Z,4.20
2022-10-23T20:03:42.387Z,6.07
2022-10-23T20:06:11.701Z,5.03
2022-10-23T20:08:39.740Z,4.73
2022-10-23T20:11:08.211Z,4.80
2022-10-23T20:13:36.333Z,4.80
2022-10-23T20:16:04.506Z,3.50
2022-10-23T20:18:32.723Z,4.17
2022-10-23T20:21:03.668Z,3.30
2022-10-23T20:23:31.573Z,3.93
2022-10-23T20:26:05.747Z,3.90
2022-10-23T20:28:34.056Z,4.20
2022-10-23T20:31:08.537Z,3.60
2022-10-23T20:33:36.689Z,3.70
2022-10-23T20:36:08.596Z,4.80
2022-10-23T20:38:37.143Z,3.80
2022-10-23T20:41:05.931Z,3.97
2022-10-23T20:43:34.818Z,4.10
2022-10-23T20:46:04.979Z,3.93
2022-10-23T20:48:35.859Z,3.23
2022-10-23T20:51:05.712Z,3.20
2022-10-23T20:53:35.219Z,3.17
2022-10-23T20:56:06.668Z,4.10
2022-10-23T20:58:34.699Z,3.50
2022-10-23T21:01:06.857Z,3.70
2022-10-23T21:03:34.893Z,2.90
2022-10-23T21:06:09.903Z,3.50
2022-10-23T21:08:38.664Z,3.10
2022-10-23T21:11:08.054Z,3.63
2022-10-23T21:13:35.955Z,3.77
2022-10-23T21:16:13.751Z,3.40
2022-10-23T21:18:46.140Z,4.00
2022-10-23T21:21:19.369Z,3.93
2022-10-23T21:23:48.382Z,4.23
2022-10-23T21:26:17.426Z,4.50
2022-10-23T21:28:55.797Z,4.40
2022-10-23T21:31:29.248Z,3.50
2022-10-23T21:33:57.298Z,3.57
2022-10-23T21:36:27.524Z,3.83
2022-10-23T21:38:58.297Z,3.83
2022-10-23T21:41:27.993Z,3.20
2022-10-23T21:43:58.009Z,3.70
2022-10-23T21:46:27.413Z,3.00
2022-10-23T21:48:55.383Z,3.33
2022-10-23T21:51:25.330Z,3.37
2022-10-23T21:53:55.255Z,3.17
2022-10-23T21:56:30.483Z,4.17
2022-10-23T21:58:59.310Z,3.60
2022-10-23T22:01:27.889Z,5.37
2022-10-23T22:03:56.833Z,3.80
2022-10-23T22:06:26.885Z,4.57
2022-10-23T22:08:57.524Z,4.07
2022-10-23T22:11:26.182Z,7.50
2022-10-23T22:13:54.492Z,7.27
2022-10-23T22:16:22.421Z,6.30
2022-10-23T22:18:50.562Z,6.30
2022-10-23T22:21:21.307Z,7.60
2022-10-23T22:23:49.963Z,7.33
2022-10-23T22:26:24.110Z,7.67
2022-10-23T22:28:53.840Z,7.60
2022-10-23T22:31:24.373Z,8.27
2022-10-23T22:33:52.587Z,7.33
2022-10-23T22:36:21.032Z,7.67
2022-10-23T22:38:49.171Z,6.80
2022-10-23T22:41:17.644Z,8.10
2022-10-23T22:43:47.159Z,7.37
2022-10-23T22:46:16.446Z,7.60
2022-10-23T22:48:44.783Z,7.67
2022-10-23T22:51:14.100Z,9.00
2022-10-23T22:53:42.342Z,8.67
2022-10-23T22:56:13.179Z,7.77
2022-10-23T22:58:41.564Z,7.97
2022-10-23T23:01:15.123Z,7.37
2022-10-23T23:03:43.909Z,5.60
2022-10-23T23:06:12.639Z,6.77
2022-10-23T23:08:41.812Z,6.67
2022-10-23T23:11:12.572Z,6.53
2022-10-23T23:13:41.781Z,7.23
2022-10-23T23:16:19.157Z,7.20
2022-10-23T23:18:47.494Z,6.67
2022-10-23T23:21:16.171Z,8.53
2022-10-23T23:23:44.159Z,7.97
2022-10-23T23:26:12.416Z,6.10
2022-10-23T23:28:40.323Z,6.93
2022-10-23T23:31:13.797Z,5.90
2022-10-23T23:33:41.780Z,5.43
2022-10-23T23:36:12.563Z,4.87
2022-10-23T23:38:41.046Z,5.43
2022-10-23T23:41:13.725Z,7.20
2022-10-23T23:43:42.037Z,7.37
2022-10-23T23:46:12.353Z,7.23
2022-10-23T23:48:42.364Z,7.50
2022-10-23T23:51:10.393Z,7.27
2022-10-23T23:53:38.394Z,8.30
2022-10-23T23:56:07.912Z,7.57
2022-10-23T23:58:35.984Z,7.60
